createdAt,value
2023-01-03T00:04:47.442Z,86.00
2023-01-03T00:19:32.929Z,86.32
2023-01-03T00:34:25.226Z,86.47
2023-01-03T01:04:08.752Z,86.79
2023-01-03T01:33:50.746Z,86.46
2023-01-03T01:48:42.208Z,87.31
2023-01-03T02:03:34.325Z,87.55
2023-01-03T02:18:43.666Z,87.54
2023-01-03T02:49:02.380Z,87.74
2023-01-03T03:03:57.388Z,88.48
2023-01-03T03:18:56.530Z,88.83
2023-01-03T04:04:36.907Z,89.48
2023-01-03T04:19:27.627Z,89.60
2023-01-03T04:34:17.993Z,89.81
2023-01-03T04:49:08.416Z,89.95
2023-01-03T05:03:59.157Z,90.67
2023-01-03T05:33:52.362Z,90.60
2023-01-03T05:48:42.386Z,90.79
2023-01-03T06:03:33.292Z,91.34
2023-01-03T06:18:24.244Z,90.98
2023-01-03T06:33:14.981Z,90.90
2023-01-03T06:48:23.998Z,91.81
2023-01-03T07:03:11.421Z,91.69
2023-01-03T07:17:59.355Z,92.20
2023-01-03T07:32:50.320Z,91.89
2023-01-03T07:47:47.351Z,92.14
2023-01-03T08:02:41.180Z,92.37
2023-01-03T08:17:31.818Z,92.78
2023-01-03T08:32:22.744Z,93.52
2023-01-03T08:47:14.231Z,93.46
2023-01-03T09:02:05.202Z,93.53
2023-01-03T09:17:01.087Z,93.27
2023-01-03T09:31:47.244Z,93.30
2023-01-03T10:01:52.346Z,91.79
2023-01-03T10:16:49.220Z,90.64
2023-01-03T10:32:06.279Z,88.93
2023-01-03T10:47:05.338Z,87.20
2023-01-03T11:02:02.941Z,85.11
2023-01-03T11:16:56.222Z,85.21
2023-01-03T12:03:04.838Z,84.76
2023-01-03T12:18:01.453Z,77.97
2023-01-03T12:32:58.936Z,76.36
2023-01-03T12:48:11.637Z,75.40
2023-01-03T13:03:39.394Z,73.48
2023-01-03T13:18:35.523Z,70.47
2023-01-03T13:33:26.841Z,68.15
2023-01-03T13:48:18.617Z,67.32
2023-01-03T14:03:15.022Z,68.36
2023-01-03T14:18:14.254Z,69.19
2023-01-03T14:33:18.086Z,70.68
2023-01-03T14:48:12.531Z,71.08
2023-01-03T15:03:03.305Z,71.00
2023-01-03T15:17:54.135Z,71.86
2023-01-03T15:33:03.468Z,72.86
2023-01-03T15:47:59.138Z,73.98
2023-01-03T16:02:49.437Z,75.41
2023-01-03T16:17:39.273Z,77.15
2023-01-03T16:32:30.223Z,78.87
2023-01-03T16:47:23.045Z,80.29
2023-01-03T17:02:15.665Z,81.69
2023-01-03T17:17:06.101Z,83.08
2023-01-03T17:31:56.794Z,83.76
2023-01-03T17:47:05.691Z,83.95
2023-01-03T18:02:00.708Z,85.06
2023-01-03T18:16:55.019Z,85.83
2023-01-03T18:31:41.249Z,86.57
2023-01-03T18:46:32.783Z,87.50
2023-01-03T19:16:31.871Z,86.58
2023-01-03T19:31:27.016Z,86.36
2023-01-03T19:46:19.407Z,86.61
2023-01-03T20:01:09.919Z,86.43
2023-01-03T20:16:01.101Z,86.06
2023-01-03T20:30:51.678Z,86.14
2023-01-03T20:45:42.464Z,86.06
2023-01-03T21:00:32.644Z,86.60
2023-01-03T21:15:28.596Z,87.31
2023-01-03T21:30:21.443Z,87.50
2023-01-03T21:45:11.338Z,87.90
2023-01-03T22:14:49.410Z,88.35
2023-01-03T22:29:39.848Z,88.92
2023-01-03T22:44:29.585Z,89.08
2023-01-03T22:59:20.524Z,89.29
2023-01-03T23:14:11.803Z,88.75
2023-01-03T23:29:02.580Z,88.76
2023-01-03T23:43:53.427Z,88.15
